This is the latest recevied weather packets stored in our database for station/object YO8PIC-4. If no packets are shown the sender has not sent any weather packets the latest 10 day(s).
| Time | Temp. | Humidity | Pressure | Rain* | Wind** | Luminosity | Snow |
|---|---|---|---|---|---|---|---|
| 1777671208 | 23.89° C | 53% | 1021.2 hPa | - | - | - | - |
| 1777670608 | 26.11° C | 47% | 1021.1 hPa | - | - | - | - |
| 1777670007 | 26.67° C | 47% | 1021.1 hPa | - | - | - | - |
| 1777669407 | 26.67° C | 47% | 1021.2 hPa | - | - | - | - |
| 1777668807 | 27.22° C | 46% | 1021.1 hPa | - | - | - | - |
| 1777668207 | 26.67° C | 45% | 1021.1 hPa | - | - | - | - |
| 1777667607 | 26.67° C | 45% | 1021.1 hPa | - | - | - | - |
| 1777667006 | 27.22° C | 45% | 1021.1 hPa | - | - | - | - |
| 1777666406 | 26.67° C | 45% | 1021 hPa | - | - | - | - |
| 1777665806 | 26.67° C | 45% | 1020.9 hPa | - | - | - | - |
| 1777665206 | 27.22° C | 44% | 1021 hPa | - | - | - | - |
| 1777664606 | 27.22° C | 45% | 1021 hPa | - | - | - | - |
| 1777664006 | 26.67° C | 45% | 1020.9 hPa | - | - | - | - |
| 1777663406 | 27.22° C | 44% | 1020.9 hPa | - | - | - | - |
| 1777662806 | 27.22° C | 44% | 1020.9 hPa | - | - | - | - |
| 1777662205 | 27.78° C | 43% | 1020.9 hPa | - | - | - | - |
| 1777661605 | 27.78° C | 42% | 1020.9 hPa | - | - | - | - |
| 1777661005 | 28.33° C | 41% | 1020.8 hPa | - | - | - | - |
| 1777660405 | 28.33° C | 41% | 1020.7 hPa | - | - | - | - |
| 1777659805 | 27.78° C | 41% | 1020.7 hPa | - | - | - | - |
| 1777659205 | 27.22° C | 43% | 1020.7 hPa | - | - | - | - |
| 1777658604 | 26.67° C | 44% | 1020.5 hPa | - | - | - | - |
| 1777658005 | 25.56° C | 45% | 1020.5 hPa | - | - | - | - |
| 1777657404 | 24.44° C | 48% | 1020.4 hPa | - | - | - | - |
| 1777656804 | 22.78° C | 52% | 1020.5 hPa | - | - | - | - |
* Rain since midnight (hover to see other rain measurements)
** Current wind speed in m/s (hover to see current wind gust speed)